Time;durP1;ratioP1;P1;durP2;ratioP2;P2;SDS_P1;SDS_P2;PMS_P1;PMS_P2;Temp;Humidity;BMP_temperature;BMP_pressure;BME280_temperature;BME280_humidity;BME280_pressure;Samples;Min_cycle;Max_cycle;Signal;HPM_P1;HPM_P2
2020/12/07 00:01:13;;;;;;;28.23;11.88;;;;;;;-7.48;84.37;100651.95;1810508;78;21375;-69
2020/12/07 00:03:40;;;;;;;26.75;11.43;;;;;;;-7.52;84.42;100648.23;1810534;78;21165;-68
2020/12/07 00:06:08;;;;;;;29.37;13.18;;;;;;;-7.56;84.62;100656.50;1810488;79;21138;-67
2020/12/07 00:08:37;;;;;;;24.52;10.63;;;;;;;-7.56;84.72;100642.72;1810532;78;21301;-67
2020/12/07 00:11:06;;;;;;;27.10;11.38;;;;;;;-7.56;84.73;100640.20;1810478;79;21605;-69
2020/12/07 00:13:36;;;;;;;20.35;10.80;;;;;;;-7.59;84.69;100647.40;1810959;78;21560;-66
2020/12/07 00:16:09;;;;;;;28.73;12.35;;;;;;;-7.60;84.66;100646.52;1810692;79;21162;-67
2020/12/07 00:18:38;;;;;;;28.27;12.73;;;;;;;-7.62;84.79;100644.56;1810547;79;21135;-65
2020/12/07 00:21:11;;;;;;;23.60;11.08;;;;;;;-7.64;84.73;100650.28;1810500;79;21137;-66
2020/12/07 00:23:39;;;;;;;22.82;10.88;;;;;;;-7.65;84.85;100647.63;1810558;78;21297;-70
2020/12/07 00:26:07;;;;;;;24.18;11.85;;;;;;;-7.64;84.84;100646.89;1810507;79;21142;-69
2020/12/07 00:28:35;;;;;;;28.30;12.13;;;;;;;-7.69;84.73;100642.99;1810504;78;21138;-66
2020/12/07 00:31:14;;;;;;;29.12;10.98;;;;;;;-7.74;84.91;100669.17;1642582;86;21194;-69
2020/12/07 00:33:42;;;;;;;20.40;9.30;;;;;;;-7.77;84.95;100629.63;1642436;87;21341;-70
2020/12/07 00:36:10;;;;;;;27.25;11.03;;;;;;;-7.81;85.07;100630.03;1642631;86;21166;-65
2020/12/07 00:38:37;;;;;;;29.37;11.95;;;;;;;-7.85;85.16;100636.67;1642533;86;21222;-69
2020/12/07 00:41:06;;;;;;;29.98;11.60;;;;;;;-7.86;85.33;100633.66;1642521;87;21239;-65
2020/12/07 00:43:34;;;;;;;24.95;11.18;;;;;;;-7.86;85.33;100628.64;1642586;86;21320;-67
2020/12/07 00:46:01;;;;;;;26.27;11.45;;;;;;;-7.85;85.36;100629.16;1642545;86;21163;-65
2020/12/07 00:48:29;;;;;;;25.97;11.73;;;;;;;-7.84;85.30;100629.67;1642837;86;21550;-68
2020/12/07 00:50:58;;;;;;;29.05;11.30;;;;;;;-7.86;85.38;100637.41;1642564;86;21313;-66
2020/12/07 00:53:25;;;;;;;25.15;11.50;;;;;;;-7.89;85.33;100630.78;1613007;87;21655;-68
2020/12/07 00:55:53;;;;;;;26.87;12.47;;;;;;;-7.87;85.25;100618.06;1606180;89;21725;-69
2020/12/07 00:58:21;;;;;;;22.75;10.55;;;;;;;-7.90;85.16;100644.05;1635483;88;21181;-69
2020/12/07 01:00:49;;;;;;;25.15;11.70;;;;;;;-7.88;85.04;100641.35;1642642;87;21180;-69
2020/12/07 01:03:17;;;;;;;28.57;13.40;;;;;;;-7.88;84.95;100635.09;1642679;87;21326;-68
2020/12/07 01:05:45;;;;;;;27.17;11.35;;;;;;;-7.88;84.90;100637.59;1642781;87;21205;-67
2020/12/07 01:08:15;;;;;;;23.60;10.68;;;;;;;-7.88;84.82;100637.59;1642824;87;21254;-70
2020/12/07 01:10:42;;;;;;;25.70;11.35;;;;;;;-7.92;84.63;100631.34;1642821;87;21213;-68
2020/12/07 01:13:10;;;;;;;21.55;10.43;;;;;;;-7.95;84.82;100651.05;1642941;87;21205;-66
2020/12/07 01:15:39;;;;;;;25.75;11.08;;;;;;;-7.98;84.89;100624.78;1642858;87;21245;-65
2020/12/07 01:18:07;;;;;;;27.37;11.97;;;;;;;-8.00;84.92;100633.73;1642736;87;21319;-69
2020/12/07 01:20:35;;;;;;;25.37;12.15;;;;;;;-8.02;84.92;100625.16;1642933;87;21319;-66
2020/12/07 01:23:05;;;;;;;24.12;11.22;;;;;;;-8.03;84.86;100624.64;1642873;87;21202;-66
2020/12/07 01:25:33;;;;;;;21.10;10.30;;;;;;;-8.05;84.71;100641.98;1642847;87;21334;-69
2020/12/07 01:28:01;;;;;;;24.75;11.70;;;;;;;-8.08;84.60;100620.36;1642842;87;21319;-67
2020/12/07 01:30:29;;;;;;;24.47;12.70;;;;;;;-8.15;84.71;100607.52;1655858;86;21197;-69
2020/12/07 01:32:58;;;;;;;26.35;11.43;;;;;;;-8.17;84.78;100609.32;1698307;84;21181;-69
2020/12/07 01:35:27;;;;;;;23.02;9.75;;;;;;;-8.21;84.79;100615.62;1698332;84;21257;-65
2020/12/07 01:37:55;;;;;;;29.32;12.25;;;;;;;-8.23;84.62;100636.20;1698116;84;21178;-67
2020/12/07 01:40:23;;;;;;;23.27;11.68;;;;;;;-8.20;84.64;100619.00;1698376;84;21726;-67
2020/12/07 01:42:52;;;;;;;19.52;9.00;;;;;;;-8.20;84.57;100619.00;1698095;84;21189;-67
2020/12/07 01:45:20;;;;;;;25.88;11.40;;;;;;;-8.19;84.45;100624.53;1698345;84;21162;-69
2020/12/07 01:47:48;;;;;;;25.25;10.90;;;;;;;-8.18;84.37;100620.95;1698231;84;21756;-66
2020/12/07 01:50:16;;;;;;;28.85;10.38;;;;;;;-8.18;84.28;100623.46;1677166;84;21205;-70
2020/12/07 01:52:45;;;;;;;27.10;11.28;;;;;;;-8.19;83.98;100612.01;1698899;84;21169;-68
2020/12/07 01:55:14;;;;;;;33.55;12.50;;;;;;;-8.24;83.98;100635.31;1698837;84;21149;-68
2020/12/07 01:57:47;;;;;;;26.50;10.82;;;;;;;-8.27;83.99;100620.30;1698646;84;21564;-65
2020/12/07 02:00:15;;;;;;;20.27;8.45;;;;;;;-8.28;84.06;100618.52;1698773;84;21165;-66
2020/12/07 02:02:44;;;;;;;21.52;9.90;;;;;;;-8.28;84.08;100595.63;1698912;84;21220;-67
2020/12/07 02:05:13;;;;;;;24.23;10.72;;;;;;;-8.28;83.91;100601.88;1700031;84;21189;-69
2020/12/07 02:07:41;;;;;;;22.30;8.98;;;;;;;-8.28;83.83;100600.99;1698287;84;21177;-70
2020/12/07 02:10:10;;;;;;;25.92;10.13;;;;;;;-8.26;83.66;100623.34;1698278;84;21177;-69
2020/12/07 02:12:38;;;;;;;47.23;11.33;;;;;;;-8.29;83.55;100610.13;1699977;84;21186;-67
2020/12/07 02:15:06;;;;;;;22.35;9.15;;;;;;;-8.31;83.51;100601.55;1698214;84;21738;-65
2020/12/07 02:17:34;;;;;;;22.95;10.78;;;;;;;-8.32;83.33;100618.52;1698117;84;21295;-69
2020/12/07 02:20:03;;;;;;;26.87;9.75;;;;;;;-8.35;83.39;100609.42;1698376;84;21671;-69
2020/12/07 02:22:30;;;;;;;22.82;10.28;;;;;;;-8.35;83.39;100603.17;1698245;84;21177;-68
2020/12/07 02:25:19;;;;;;;17.17;8.83;;;;;;;-8.37;83.34;100697.23;1697746;84;21209;-69
2020/12/07 02:27:50;;;;;;;22.95;9.93;;;;;;;-8.39;83.21;100629.89;1698177;84;21173;-68
2020/12/07 02:30:21;;;;;;;23.92;10.50;;;;;;;-8.42;83.19;100596.97;1699933;84;21233;-68
2020/12/07 02:32:52;;;;;;;19.67;9.98;;;;;;;-8.43;83.14;100609.86;1698451;84;21505;-68
2020/12/07 02:35:24;;;;;;;22.25;10.15;;;;;;;-8.45;82.98;100611.66;1698084;84;21168;-67
2020/12/07 02:37:53;;;;;;;22.17;9.98;;;;;;;-8.45;83.01;100615.05;1698092;84;21600;-68
2020/12/07 02:40:22;;;;;;;23.00;9.58;;;;;;;-8.44;82.88;100639.75;1698004;84;21590;-69
2020/12/07 02:42:52;;;;;;;21.70;9.80;;;;;;;-8.46;82.80;100618.66;1698044;84;21181;-66
2020/12/07 02:45:21;;;;;;;25.68;10.25;;;;;;;-8.47;82.88;100609.34;1698316;84;21153;-67
2020/12/07 02:48:01;;;;;;;19.07;10.18;;;;;;;-8.45;82.77;100655.47;1698113;84;21198;-64
2020/12/07 02:50:30;;;;;;;22.05;9.10;;;;;;;-8.48;82.50;100630.09;1698176;84;21142;-65
2020/12/07 02:52:58;;;;;;;24.72;10.20;;;;;;;-8.52;82.28;100614.74;1698093;84;21181;-65
2020/12/07 02:55:26;;;;;;;22.95;10.05;;;;;;;-8.54;82.20;100639.95;1698079;84;21165;-66
2020/12/07 02:57:54;;;;;;;23.45;10.98;;;;;;;-8.56;82.18;100638.00;1698415;84;21331;-68
2020/12/07 03:00:23;;;;;;;21.90;10.18;;;;;;;-8.59;82.17;100639.80;1698245;84;21718;-68
2020/12/07 03:02:51;;;;;;;23.02;9.13;;;;;;;-8.60;82.22;100634.27;1698244;84;21170;-68
2020/12/07 03:05:21;;;;;;;26.40;10.45;;;;;;;-8.61;82.18;100632.47;1698153;84;21295;-69
2020/12/07 03:07:49;;;;;;;24.95;10.58;;;;;;;-8.63;82.18;100640.16;1698077;84;21174;-66
2020/12/07 03:10:19;;;;;;;27.17;10.93;;;;;;;-8.61;81.94;100626.58;1666872;86;21185;-68
2020/12/07 03:12:48;;;;;;;23.92;10.20;;;;;;;-8.60;81.83;100629.27;1654907;87;21592;-69
2020/12/07 03:15:18;;;;;;;22.35;9.45;;;;;;;-8.60;81.70;100620.84;1697928;84;21153;-69
2020/12/07 03:17:46;;;;;;;25.65;8.85;;;;;;;-8.62;81.63;100648.58;1698079;84;21181;-66
2020/12/07 03:20:16;;;;;;;20.95;10.40;;;;;;;-8.65;81.62;100626.61;1698351;84;21161;-65
2020/12/07 03:22:44;;;;;;;22.22;10.38;;;;;;;-8.66;81.62;100630.17;1698151;84;21130;-67
2020/12/07 03:25:12;;;;;;;21.05;8.88;;;;;;;-8.64;81.61;100676.29;1698176;84;21169;-70
2020/12/07 03:27:42;;;;;;;22.10;9.23;;;;;;;-8.65;81.48;100626.61;1698138;84;21205;-69
2020/12/07 03:30:10;;;;;;;21.77;8.55;;;;;;;-8.63;81.25;100637.66;1697056;84;21319;-67
2020/12/07 03:32:38;;;;;;;21.52;9.50;;;;;;;-8.60;81.16;100620.84;1692999;85;21185;-68
2020/12/07 03:35:07;;;;;;;24.50;10.00;;;;;;;-8.65;81.17;100634.11;1693080;84;21308;-69
2020/12/07 03:37:34;;;;;;;17.35;10.53;;;;;;;-8.66;81.32;100621.42;1692813;84;21311;-67
2020/12/07 03:40:04;;;;;;;20.00;8.68;;;;;;;-8.66;80.99;100622.67;1692898;84;21189;-65
2020/12/07 03:42:33;;;;;;;23.55;8.93;;;;;;;-8.69;81.08;100608.20;1692615;85;21616;-67
2020/12/07 03:45:04;;;;;;;22.70;9.80;;;;;;;-8.69;81.13;100609.45;1692714;85;21137;-67
2020/12/07 03:47:32;;;;;;;23.98;9.00;;;;;;;-8.66;81.03;100614.80;1693006;84;21188;-66
2020/12/07 03:50:01;;;;;;;17.82;8.20;;;;;;;-8.66;80.79;100603.90;1692779;84;21178;-70
2020/12/07 03:52:29;;;;;;;26.37;10.18;;;;;;;-8.69;80.84;100604.45;1693083;84;21196;-67
2020/12/07 03:54:59;;;;;;;22.40;9.83;;;;;;;-8.71;80.79;100615.89;1692938;85;21575;-68
2020/12/07 03:57:28;;;;;;;23.60;9.45;;;;;;;-8.73;80.78;100612.31;1692980;84;21173;-68
2020/12/07 03:59:57;;;;;;;24.57;9.03;;;;;;;-8.75;80.59;100610.91;1693175;84;21243;-68
2020/12/07 04:02:27;;;;;;;31.75;11.40;;;;;;;-8.75;80.74;100611.24;1693268;85;21314;-68
2020/12/07 04:05:01;;;;;;;23.10;9.73;;;;;;;-8.78;80.81;100610.54;1693415;84;21365;-66
2020/12/07 04:07:25;;;;;;;21.02;9.73;;;;;;;-8.79;80.82;100615.39;1692608;85;21308;-67
2020/12/07 04:09:53;;;;;;;24.67;9.90;;;;;;;-8.75;80.58;100617.17;1693265;84;21190;-69
2020/12/07 04:12:21;;;;;;;23.50;11.65;;;;;;;-8.75;80.57;100616.25;1692837;85;21186;-65
2020/12/07 04:14:50;;;;;;;23.95;10.05;;;;;;;-8.74;80.62;100619.30;1692876;84;21161;-68
2020/12/07 04:17:18;;;;;;;25.17;8.73;;;;;;;-8.77;80.46;100623.60;1692996;85;21260;-66
2020/12/07 04:19:46;;;;;;;18.82;9.33;;;;;;;-8.72;80.14;100624.13;1692890;85;21307;-68
2020/12/07 04:22:14;;;;;;;23.55;10.08;;;;;;;-8.71;80.28;100615.00;1692740;84;21189;-68
2020/12/07 04:24:41;;;;;;;21.95;8.60;;;;;;;-8.77;80.27;100625.22;1693020;84;21185;-66
2020/12/07 04:27:09;;;;;;;23.38;9.38;;;;;;;-8.79;80.24;100640.05;1692866;84;21197;-66
2020/12/07 04:29:37;;;;;;;20.77;7.65;;;;;;;-8.78;79.99;100608.41;1692997;85;21157;-67
2020/12/07 04:32:04;;;;;;;23.15;9.40;;;;;;;-8.78;80.04;100620.55;1697212;84;21358;-70
2020/12/07 04:34:33;;;;;;;22.20;8.93;;;;;;;-8.82;80.14;100626.31;1698343;84;21166;-68
2020/12/07 04:37:00;;;;;;;19.75;9.55;;;;;;;-8.80;80.15;100621.09;1698075;84;21177;-66
2020/12/07 04:39:28;;;;;;;19.50;8.58;;;;;;;-8.81;79.99;100614.31;1698146;84;21279;-65
2020/12/07 04:41:58;;;;;;;25.77;9.73;;;;;;;-8.84;80.22;100623.62;1698113;84;21185;-66
2020/12/07 04:44:26;;;;;;;25.40;10.48;;;;;;;-8.87;80.33;100609.89;1698116;84;21169;-68
2020/12/07 04:46:54;;;;;;;24.12;9.48;;;;;;;-8.85;80.31;100604.34;1697985;84;21323;-66
2020/12/07 04:49:24;;;;;;;23.52;8.75;;;;;;;-8.83;80.22;100594.48;1698006;84;21133;-66
2020/12/07 04:51:52;;;;;;;23.20;9.38;;;;;;;-8.84;80.14;100603.97;1698169;84;21231;-66
2020/12/07 04:54:20;;;;;;;22.80;10.40;;;;;;;-8.83;79.96;100601.98;1697998;84;21307;-66
2020/12/07 04:56:48;;;;;;;26.30;9.60;;;;;;;-8.84;80.08;100597.72;1698173;84;21138;-66
2020/12/07 04:59:19;;;;;;;25.40;11.35;;;;;;;-8.84;79.92;100602.72;1698126;84;21646;-67
2020/12/07 05:01:46;;;;;;;18.85;8.75;;;;;;;-8.84;80.09;100593.97;1697949;84;21145;-68
2020/12/07 05:04:14;;;;;;;18.90;9.55;;;;;;;-8.85;79.81;100600.92;1698249;84;21192;-69
2020/12/07 05:06:42;;;;;;;25.70;10.43;;;;;;;-8.87;79.88;100589.87;1698055;84;21054;-67
2020/12/07 05:09:10;;;;;;;19.67;7.97;;;;;;;-8.90;79.91;100580.42;1698182;84;21038;-70
2020/12/07 05:11:38;;;;;;;14.63;7.72;;;;;;;-8.89;79.90;100583.80;1698063;84;21192;-69
2020/12/07 05:14:10;;;;;;;31.15;10.20;;;;;;;-8.90;79.86;100589.17;1697990;84;21058;-67
2020/12/07 05:16:35;;;;;;;21.65;9.65;;;;;;;-8.91;79.87;100586.48;1697970;84;21069;-66
2020/12/07 05:19:10;;;;;;;23.70;11.12;;;;;;;-8.91;79.87;100586.12;1698072;84;21062;-66
2020/12/07 05:21:38;;;;;;;19.25;7.92;;;;;;;-8.92;79.76;100599.72;1697934;84;21203;-66
2020/12/07 05:24:06;;;;;;;22.20;9.95;;;;;;;-8.91;79.66;100605.24;1697932;84;21136;-68
2020/12/07 05:26:35;;;;;;;25.17;9.83;;;;;;;-8.91;79.52;100591.48;1698116;84;21220;-66
2020/12/07 05:29:08;;;;;;;23.87;8.85;;;;;;;-8.91;79.58;100583.98;1698078;84;21062;-66
2020/12/07 05:31:35;;;;;;;22.98;10.32;;;;;;;-8.90;79.50;100591.67;1701827;84;21121;-69
2020/12/07 05:34:05;;;;;;;31.25;10.53;;;;;;;-8.91;79.31;100631.50;1709327;83;21037;-71
2020/12/07 05:36:33;;;;;;;23.57;9.75;;;;;;;-8.93;79.26;100606.67;1705945;84;21158;-70
2020/12/07 05:39:05;;;;;;;22.48;10.00;;;;;;;-8.97;79.39;100585.44;1706054;84;21199;-68
2020/12/07 05:41:32;;;;;;;;;;;;;;;-8.94;79.34;100638.67;1708439;84;21282;-69
2020/12/07 05:44:03;;;;;;;27.20;9.90;;;;;;;-8.91;79.37;100601.12;1705832;84;20278;-68
2020/12/07 05:46:33;;;;;;;25.23;10.68;;;;;;;-8.88;79.18;100621.84;1706076;84;21207;-67
2020/12/07 05:49:02;;;;;;;28.98;11.38;;;;;;;-8.90;79.02;100642.03;1705857;84;21131;-67
2020/12/07 05:51:30;;;;;;;20.35;7.62;;;;;;;-8.94;79.18;100647.05;1705785;84;21199;-68
2020/12/07 05:53:59;;;;;;;25.45;10.88;;;;;;;-8.94;79.21;100629.91;1705363;83;21484;-70
2020/12/07 05:56:31;;;;;;;21.00;9.83;;;;;;;-8.92;79.25;100616.86;1712421;83;21030;-69
2020/12/07 05:59:10;;;;;;;19.17;8.80;;;;;;;-8.64;78.73;100622.48;1703078;84;21132;-69
2020/12/07 06:01:41;;;;;;;24.85;10.63;;;;;;;-8.35;77.64;100625.70;1704474;84;21184;-69
2020/12/07 06:04:09;;;;;;;23.50;12.13;;;;;;;-7.99;76.69;100630.50;1695812;83;21061;-68
2020/12/07 06:06:39;;;;;;;22.52;10.50;;;;;;;-7.74;75.34;100629.07;1691365;84;21442;-70
2020/12/07 06:09:14;;;;;;;25.15;10.78;;;;;;;-7.47;74.90;100612.39;1643758;84;21062;-71
2020/12/07 06:12:04;;;;;;;28.92;11.83;;;;;;;-7.33;73.14;100636.05;1692610;84;21111;-67
2020/12/07 06:14:33;;;;;;;19.52;9.18;;;;;;;-6.93;72.56;100617.75;1618219;88;21074;-67
2020/12/07 06:17:01;;;;;;;28.38;9.78;;;;;;;-6.63;70.86;100628.00;1647944;86;21089;-69
2020/12/07 06:19:33;;;;;;;25.75;10.23;;;;;;;-6.52;69.91;100621.58;1635706;87;21086;-69
2020/12/07 06:22:02;;;;;;;26.40;11.53;;;;;;;-6.21;69.18;100616.85;1651639;86;21074;-70
2020/12/07 06:24:42;;;;;;;22.42;10.00;;;;;;;-6.06;68.18;100626.34;1651828;86;21107;-67
2020/12/07 06:27:13;;;;;;;21.68;9.40;;;;;;;-5.69;66.98;100630.59;1651635;86;21094;-66
2020/12/07 06:30:01;;;;;;;27.30;10.65;;;;;;;-5.61;66.18;100611.62;1651704;86;21253;-67
2020/12/07 06:32:54;;;;;;;29.12;10.48;;;;;;;-5.59;65.68;100607.27;1647907;86;21140;-67
2020/12/07 06:35:26;;;;;;;18.82;9.45;;;;;;;-5.19;64.60;100606.23;1647054;86;21080;-68
2020/12/07 06:37:54;;;;;;;27.58;12.00;;;;;;;-5.01;63.48;100610.93;1647027;86;21055;-66
2020/12/07 06:40:25;;;;;;;30.62;11.00;;;;;;;-4.88;63.13;100604.21;1666584;86;21062;-73
2020/12/07 06:43:28;;;;;;;26.95;11.33;;;;;;;-4.54;62.57;100604.97;1687879;85;21063;-67
2020/12/07 06:45:52;;;;;;;26.12;10.35;;;;;;;-4.48;61.74;100600.50;1687187;85;21228;-71
2020/12/07 06:48:23;;;;;;;32.70;12.28;;;;;;;-4.20;61.23;100607.47;1687759;84;21098;-73
2020/12/07 06:50:52;;;;;;;25.23;12.33;;;;;;;-4.03;60.40;100601.86;1686885;85;21264;-68
2020/12/07 06:55:55;;;;;;;20.85;10.18;;;;;;;-3.65;59.15;100600.80;1687334;84;21639;-70
2020/12/07 06:58:39;;;;;;;23.65;12.15;;;;;;;-3.43;58.62;100597.38;1687606;85;21042;-68
2020/12/07 07:01:15;;;;;;;28.65;11.68;;;;;;;-3.13;57.70;100611.89;1687658;85;21181;-72
2020/12/07 07:03:55;;;;;;;18.37;9.08;;;;;;;-3.04;57.13;100596.33;1687814;84;21095;-69
2020/12/07 07:06:23;;;;;;;26.17;10.68;;;;;;;-3.14;57.05;100603.82;1687793;84;21188;-69
2020/12/07 07:08:54;;;;;;;24.43;11.12;;;;;;;-3.24;57.01;100602.09;1687611;85;21095;-69
2020/12/07 07:11:21;;;;;;;27.22;12.37;;;;;;;-3.19;57.25;100593.67;1687823;84;21468;-69
2020/12/07 07:13:50;;;;;;;30.08;14.53;;;;;;;-3.06;56.84;100611.33;1687608;85;21074;-68
2020/12/07 07:16:18;;;;;;;27.75;13.32;;;;;;;-2.79;56.60;100594.77;1687790;85;21058;-68
2020/12/07 07:18:46;;;;;;;27.80;13.22;;;;;;;-2.20;55.76;100601.31;1687646;85;21074;-72
2020/12/07 07:21:14;;;;;;;26.00;11.48;;;;;;;-1.92;53.68;100599.05;1687708;85;21062;-70
2020/12/07 07:23:43;;;;;;;34.90;13.78;;;;;;;-2.07;53.81;100604.92;1687753;84;21111;-71
2020/12/07 07:26:22;;;;;;;25.00;11.90;;;;;;;-1.95;54.22;100593.72;1687598;84;21216;-73
2020/12/07 07:28:46;;;;;;;27.07;12.20;;;;;;;-1.61;52.79;100586.10;1686904;84;21094;-70
2020/12/07 07:31:15;;;;;;;22.73;11.60;;;;;;;-1.62;52.59;100598.27;1687867;85;21034;-71
2020/12/07 07:33:43;;;;;;;30.25;12.07;;;;;;;-1.47;52.58;100588.17;1687901;85;21470;-68
2020/12/07 07:36:26;;;;;;;26.12;13.30;;;;;;;-1.25;52.30;100595.91;1687803;85;21055;-71
2020/12/07 07:38:55;;;;;;;30.27;12.18;;;;;;;-0.77;51.71;100589.72;1687857;84;21204;-70
2020/12/07 07:41:24;;;;;;;26.95;13.75;;;;;;;-0.02;50.27;100590.70;1688185;84;21108;-69
2020/12/07 07:43:54;;;;;;;30.48;13.70;;;;;;;-0.56;49.49;100590.56;1692521;84;21043;-68
2020/12/07 07:46:23;;;;;;;25.90;13.30;;;;;;;-0.80;50.29;100610.63;1692840;84;21074;-69
2020/12/07 08:16:22;;;;;;;27.02;13.78;;;;;;;-1.81;53.29;100566.68;1692797;85;21054;-70
2020/12/07 08:18:55;;;;;;;21.85;10.38;;;;;;;-2.32;54.29;100572.42;1693079;85;21188;-69
2020/12/07 08:21:33;;;;;;;30.70;12.37;;;;;;;-2.58;55.11;100578.09;1692636;85;21074;-68
2020/12/07 08:24:07;;;;;;;30.95;11.30;;;;;;;-2.84;55.88;100577.55;1693269;85;21078;-70
2020/12/07 08:26:43;;;;;;;27.77;13.90;;;;;;;-3.21;57.08;100582.16;1692871;85;21452;-68
2020/12/07 08:29:11;;;;;;;30.00;12.90;;;;;;;-3.43;57.91;100575.55;1692588;85;21066;-68
2020/12/07 08:31:41;;;;;;;30.27;13.58;;;;;;;-3.60;58.53;100573.09;1692750;85;21051;-69
2020/12/07 08:34:14;;;;;;;29.27;12.45;;;;;;;-3.78;59.16;100573.16;1692568;85;21082;-68
2020/12/07 08:36:44;;;;;;;26.95;12.53;;;;;;;-3.82;59.43;100567.30;1692538;85;21086;-68
2020/12/07 08:39:13;;;;;;;28.47;12.55;;;;;;;-3.97;60.05;100565.87;1692609;85;21073;-71
2020/12/07 08:41:41;;;;;;;29.90;12.95;;;;;;;-4.03;60.31;100564.92;1692196;85;21229;-70
2020/12/07 08:44:10;;;;;;;27.37;12.25;;;;;;;-4.09;60.63;100560.96;1690464;84;21221;-71
2020/12/07 08:46:42;;;;;;;28.65;13.20;;;;;;;-4.10;60.92;100575.55;1690167;85;21082;-71
2020/12/07 08:49:10;;;;;;;23.92;11.85;;;;;;;-4.10;61.08;100562.95;1689406;83;21070;-71
2020/12/07 08:51:38;;;;;;;24.07;10.93;;;;;;;-4.07;60.94;100592.22;1683426;85;21059;-67
2020/12/07 08:54:07;;;;;;;23.80;11.08;;;;;;;-4.40;61.49;100561.46;1684683;85;21063;-72
2020/12/07 08:56:35;;;;;;;32.40;12.58;;;;;;;-4.73;62.65;100560.72;1683915;85;21066;-68
2020/12/07 08:59:03;;;;;;;29.90;12.68;;;;;;;-4.84;63.30;100549.62;1682862;84;21058;-72
2020/12/07 09:01:31;;;;;;;29.07;11.30;;;;;;;-4.84;63.55;100548.36;1679814;84;21064;-68
2020/12/07 09:04:02;;;;;;;28.57;12.58;;;;;;;-4.98;64.13;100547.41;1683604;84;21090;-81
2020/12/07 09:06:29;;;;;;;27.82;12.73;;;;;;;-5.16;64.64;100552.42;1684052;84;21236;-75
2020/12/07 09:08:57;;;;;;;29.50;13.20;;;;;;;-5.22;65.31;100547.14;1679405;85;21067;-73
2020/12/07 09:11:26;;;;;;;25.95;11.57;;;;;;;-5.33;65.76;100566.22;1683614;85;21181;-68
2020/12/07 09:13:53;;;;;;;48.35;15.20;;;;;;;-5.36;66.11;100562.14;1684358;84;21112;-75
2020/12/07 09:16:21;;;;;;;34.25;12.47;;;;;;;-5.47;66.53;100540.59;1683823;85;21201;-69
2020/12/07 09:18:49;;;;;;;24.30;12.25;;;;;;;-5.47;66.55;100536.81;1683645;85;21095;-73
2020/12/07 09:21:18;;;;;;;26.35;11.50;;;;;;;-5.47;66.74;100553.51;1685572;83;21676;-74
2020/12/07 09:23:46;;;;;;;27.15;12.75;;;;;;;-5.49;66.92;100526.97;1683512;85;21633;-73
2020/12/07 09:26:14;;;;;;;19.92;9.85;;;;;;;-5.43;66.94;100534.59;1683596;85;21043;-73
2020/12/07 09:28:41;;;;;;;31.65;11.10;;;;;;;-5.47;66.97;100531.78;1682785;84;21059;-68
2020/12/07 09:31:09;;;;;;;22.48;9.55;;;;;;;-5.52;67.30;100534.22;1682799;85;21214;-70
2020/12/07 09:33:37;;;;;;;20.37;8.68;;;;;;;-5.57;67.47;100542.93;1682878;85;21062;-73
2020/12/07 09:36:05;;;;;;;30.90;12.58;;;;;;;-5.68;67.32;100559.81;1685428;85;21019;-75
2020/12/07 09:38:33;;;;;;;24.85;10.63;;;;;;;-5.72;67.70;100528.45;1686021;85;21062;-70
2020/12/07 09:41:01;;;;;;;25.97;10.75;;;;;;;-5.68;67.73;100522.09;1684982;84;21087;-72
2020/12/07 09:43:29;;;;;;;26.55;11.57;;;;;;;-5.69;67.69;100524.10;1685381;84;21094;-75
2020/12/07 09:45:57;;;;;;;26.42;9.45;;;;;;;-5.63;67.74;100518.41;1685472;84;21208;-72
2020/12/07 09:48:26;;;;;;;30.05;13.05;;;;;;;-5.53;67.54;100527.77;1683383;85;21317;-72
2020/12/07 09:50:54;;;;;;;28.98;13.65;;;;;;;-5.49;67.34;100508.10;1684522;84;21039;-70
2020/12/07 09:53:22;;;;;;;21.40;9.80;;;;;;;-5.37;67.18;100507.52;1684540;85;21086;-69
2020/12/07 09:55:50;;;;;;;34.48;12.65;;;;;;;-5.32;66.87;100496.27;1684557;84;21236;-75
2020/12/07 09:58:18;;;;;;;33.38;13.60;;;;;;;-5.31;66.98;100523.23;1685071;85;21087;-71
2020/12/07 10:00:48;;;;;;;33.38;14.78;;;;;;;-5.33;66.85;100492.00;1685123;84;21161;-70
2020/12/07 10:03:16;;;;;;;34.98;15.38;;;;;;;-5.26;67.06;100490.23;1684520;85;21027;-70
2020/12/07 10:05:43;;;;;;;30.43;12.03;;;;;;;-5.07;67.05;100500.44;1684956;85;21193;-76
2020/12/07 10:08:11;;;;;;;27.02;13.03;;;;;;;-4.91;65.90;100483.04;1685248;85;21490;-71
2020/12/07 10:10:39;;;;;;;46.33;17.57;;;;;;;-4.87;65.77;100492.30;1683377;85;21097;-68
2020/12/07 10:13:09;;;;;;;29.37;13.95;;;;;;;-4.78;65.68;100479.72;1682864;85;21209;-68
2020/12/07 10:15:36;;;;;;;39.92;14.83;;;;;;;-4.62;65.46;100477.02;1683013;85;21209;-68
2020/12/07 10:18:04;;;;;;;34.70;16.40;;;;;;;-4.59;64.68;100481.97;1685291;84;21213;-67
2020/12/07 10:20:33;;;;;;;28.77;11.85;;;;;;;-4.53;64.63;100474.47;1654930;86;21099;-68
2020/12/07 10:23:01;;;;;;;25.17;10.93;;;;;;;-4.50;64.01;100470.97;1636422;88;21106;-68
2020/12/07 10:25:29;;;;;;;26.85;12.93;;;;;;;-4.48;64.08;100458.16;1652848;87;21111;-70
2020/12/07 10:27:56;;;;;;;32.58;12.18;;;;;;;-4.48;63.70;100463.20;1647785;87;21532;-69
2020/12/07 10:30:24;;;;;;;54.85;13.98;;;;;;;-4.51;63.61;100478.03;1648173;87;21086;-68
2020/12/07 10:32:53;;;;;;;29.40;12.93;;;;;;;-4.70;64.05;100492.66;1647618;87;21111;-70
2020/12/07 10:35:20;;;;;;;36.20;13.50;;;;;;;-4.79;64.55;100474.14;1647489;87;21078;-70
2020/12/07 10:37:50;;;;;;;26.87;12.55;;;;;;;-4.73;64.57;100465.94;1644968;87;21131;-69
2020/12/07 10:40:17;;;;;;;43.58;16.73;;;;;;;-4.69;64.53;100465.47;1647960;87;21090;-70
2020/12/07 10:42:45;;;;;;;34.90;15.58;;;;;;;-4.57;64.55;100461.09;1683329;84;21154;-70
2020/12/07 10:45:12;;;;;;;33.55;14.68;;;;;;;-4.38;64.24;100465.83;1684452;85;21091;-67
2020/12/07 10:47:40;;;;;;;34.35;13.00;;;;;;;-4.22;63.67;100470.32;1684388;85;21067;-69
2020/12/07 10:50:08;;;;;;;36.95;14.25;;;;;;;-4.10;62.61;100460.47;1682643;85;21680;-72
2020/12/07 10:52:35;;;;;;;22.87;11.15;;;;;;;-4.06;62.77;100460.02;1682584;84;21186;-68
2020/12/07 10:55:04;;;;;;;29.37;13.08;;;;;;;-4.15;62.62;100439.91;1683000;85;21229;-71
2020/12/07 10:57:31;;;;;;;25.45;9.78;;;;;;;-4.11;62.90;100433.87;1682817;85;21169;-68
2020/12/07 10:59:59;;;;;;;27.02;11.53;;;;;;;-3.94;62.41;100452.71;1682873;84;21240;-69
2020/12/07 11:02:27;;;;;;;35.48;13.88;;;;;;;-4.00;62.06;100454.27;1682734;85;21047;-75
2020/12/07 11:04:55;;;;;;;29.20;13.98;;;;;;;-4.08;62.00;100443.86;1682738;85;21082;-70
2020/12/07 11:07:24;;;;;;;26.30;12.95;;;;;;;-4.16;61.93;100438.11;1683005;85;21070;-68
2020/12/07 11:09:54;;;;;;;34.23;14.50;;;;;;;-4.13;62.07;100427.80;1682783;85;21063;-74
2020/12/07 11:12:24;;;;;;;34.27;15.32;;;;;;;-4.02;62.25;100427.14;1682889;85;21156;-72
2020/12/07 11:14:52;;;;;;;29.90;12.13;;;;;;;-3.91;62.00;100436.59;1682809;85;21055;-68
2020/12/07 11:17:19;;;;;;;37.88;14.45;;;;;;;-3.94;61.52;100440.10;1682734;85;21079;-70
2020/12/07 11:19:47;;;;;;;29.65;13.08;;;;;;;-3.96;61.85;100423.94;1682657;85;21083;-69
2020/12/07 11:22:15;;;;;;;23.55;11.05;;;;;;;-3.87;61.82;100415.93;1682826;85;21140;-70
2020/12/07 11:24:43;;;;;;;29.90;12.47;;;;;;;-3.67;61.57;100433.26;1682692;84;21205;-73
2020/12/07 11:27:10;;;;;;;27.13;12.15;;;;;;;-3.54;61.25;100414.69;1682726;84;21062;-70
2020/12/07 11:29:38;;;;;;;30.85;13.25;;;;;;;-3.59;60.19;100429.78;1682733;85;21252;-72
2020/12/07 11:32:07;;;;;;;34.10;12.98;;;;;;;-3.77;60.83;100421.06;1682702;85;21105;-75
2020/12/07 11:34:35;;;;;;;28.50;13.43;;;;;;;-3.76;61.22;100401.42;1682809;84;21062;-74
2020/12/07 11:37:03;;;;;;;27.35;11.95;;;;;;;-3.68;61.03;100404.62;1682722;84;21067;-74
2020/12/07 11:39:43;;;;;;;27.32;11.55;;;;;;;-3.74;60.73;100400.27;1682726;84;21120;-72
2020/12/07 11:42:19;;;;;;;29.15;12.55;;;;;;;-3.96;60.99;100416.37;1682093;85;21080;-68
2020/12/07 11:44:44;;;;;;;32.50;12.68;;;;;;;-4.01;61.69;100395.78;1684430;85;21123;-71
2020/12/07 11:47:14;;;;;;;25.27;9.93;;;;;;;-3.83;61.43;100401.61;1684940;85;21098;-71
2020/12/07 11:49:42;;;;;;;32.88;10.55;;;;;;;-3.81;60.90;100394.19;1685075;85;21485;-71
2020/12/07 11:52:10;;;;;;;27.75;12.18;;;;;;;-3.99;61.29;100406.02;1684983;85;21094;-70